Time;durP1;ratioP1;P1;durP2;ratioP2;P2;SDS_P1;SDS_P2;PMS_P1;PMS_P2;Temp;Humidity;BMP_temperature;BMP_pressure;BME280_temperature;BME280_humidity;BME280_pressure;Samples;Min_cycle;Max_cycle;Signal;HPM_P1;HPM_P2
2023/12/07 00:01:47;;;;;;;;;;;;;;;3.20;77.65;99332.53;4271398;33;34580;-92
2023/12/07 00:08:19;;;;;;;;;;;;;;;3.36;76.25;99331.00;4264309;33;34627;-92
2023/12/07 00:11:00;;;;;;;;;;;;;;;3.32;76.70;99334.34;4273311;33;35725;-92
2023/12/07 00:20:47;;;;;;;;;;;;;;;;;;;;;
2023/12/07 00:23:45;;;;;;;;;;;;;;;3.02;78.17;99331.44;4227036;33;32426;-92
2023/12/07 00:26:15;;;;;;;;;;;;;;;3.08;78.18;99332.38;4226063;33;32679;-92
2023/12/07 00:28:45;;;;;;;;;;;;;;;3.17;77.73;99334.22;4253555;33;33372;-93
2023/12/07 00:31:14;;;;;;;;;;;;;;;3.06;77.70;99333.22;4224703;33;36087;-92
2023/12/07 00:33:42;;;;;;;;;;;;;;;3.10;77.66;99332.41;4237519;33;32894;-92
2023/12/07 00:36:12;;;;;;;;;;;;;;;2.91;78.54;99337.31;4236965;33;35169;-91
2023/12/07 00:38:40;;;;;;;;;;;;;;;3.06;77.98;99336.63;4242307;33;34526;-91
2023/12/07 00:41:21;;;;;;;;;;;;;;;2.73;79.58;99343.09;4242212;33;34365;-91
2023/12/07 00:43:50;;;;;;;;;;;;;;;2.85;78.92;99344.06;4238764;33;32935;-93
2023/12/07 00:46:18;;;;;;;;;;;;;;;3.06;78.18;99343.47;4265927;33;33432;-91
2023/12/07 00:48:47;;;;;;;;;;;;;;;2.75;79.14;99340.53;4265660;33;33884;-91
2023/12/07 00:51:16;;;;;;;;;;;;;;;2.77;79.23;99336.28;4270206;33;33791;-91
2023/12/07 00:53:44;;;;;;;;;;;;;;;2.67;80.22;99342.16;4268339;33;34050;-90
2023/12/07 00:56:13;;;;;;;;;;;;;;;2.67;79.86;99335.31;4284375;33;34723;-92
2023/12/07 00:58:42;;;;;;;;;;;;;;;2.50;80.51;99334.25;4311315;33;34013;-90
2023/12/07 01:01:11;;;;;;;;;;;;;;;2.75;80.77;99336.28;4316085;33;34777;-91
2023/12/07 01:03:41;;;;;;;;;;;;;;;2.92;79.03;99339.06;4313344;33;33271;-90
2023/12/07 01:06:11;;;;;;;;;;;;;;;2.91;79.11;99347.56;4311136;33;33972;-89
2023/12/07 01:08:40;;;;;;;;;;;;;;;2.61;80.50;99339.50;4303962;33;34035;-89
2023/12/07 01:11:08;;;;;;;;;;;;;;;2.70;80.31;99332.78;4312092;33;33703;-90
2023/12/07 01:13:37;;;;;;;;;;;;;;;2.63;80.57;99325.88;4316395;33;34064;-91
2023/12/07 01:16:10;;;;;;;;;;;;;;;2.70;80.28;99329.38;4310509;33;33445;-89
2023/12/07 01:18:38;;;;;;;;;;;;;;;2.66;80.07;99331.03;4306995;33;34684;-91
2023/12/07 01:21:07;;;;;;;;;;;;;;;2.46;81.63;99329.91;4287845;33;33246;-91
2023/12/07 01:23:35;;;;;;;;;;;;;;;2.55;80.92;99325.78;4304000;33;33581;-91
2023/12/07 01:26:04;;;;;;;;;;;;;;;2.46;81.83;99324.78;4305075;33;33355;-91
2023/12/07 01:28:33;;;;;;;;;;;;;;;2.34;81.41;99320.34;4303534;33;33570;-93
2023/12/07 01:31:02;;;;;;;;;;;;;;;2.61;81.31;99321.56;4308019;33;34125;-89
2023/12/07 01:33:32;;;;;;;;;;;;;;;2.61;80.69;99322.44;4309788;33;33299;-89
2023/12/07 01:36:00;;;;;;;;;;;;;;;2.51;80.96;99326.59;4315732;33;33603;-89
2023/12/07 01:38:29;;;;;;;;;;;;;;;2.50;81.50;99324.00;4308825;33;34180;-90
2023/12/07 01:40:57;;;;;;;;;;;;;;;2.42;82.04;99323.91;4310486;33;34364;-90
2023/12/07 01:43:26;;;;;;;;;;;;;;;2.55;81.58;99317.22;4309435;33;33525;-90
2023/12/07 01:45:55;;;;;;;;;;;;;;;2.69;80.77;99323.41;4315138;33;33416;-89
2023/12/07 01:48:26;;;;;;;;;;;;;;;2.75;80.46;99314.91;4310951;33;34753;-90
2023/12/07 01:50:56;;;;;;;;;;;;;;;2.80;80.31;99315.81;4310539;33;34575;-90
2023/12/07 01:53:24;;;;;;;;;;;;;;;2.74;80.48;99316.63;4310847;33;32980;-90
2023/12/07 01:55:53;;;;;;;;;;;;;;;2.65;80.45;99315.66;4315115;33;34846;-91
2023/12/07 01:58:22;;;;;;;;;;;;;;;2.63;81.21;99319.88;4302361;33;33324;-90
2023/12/07 02:00:50;;;;;;;;;;;;;;;2.70;80.53;99319.12;4310914;33;34192;-90
2023/12/07 02:03:19;;;;;;;;;;;;;;;2.76;80.64;99316.66;4310996;33;33364;-91
2023/12/07 02:05:48;;;;;;;;;;;;;;;2.83;80.04;99322.69;4311154;33;33955;-91
2023/12/07 02:08:18;;;;;;;;;;;;;;;2.91;79.80;99321.94;4316227;33;34767;-90
2023/12/07 02:10:47;;;;;;;;;;;;;;;2.85;79.90;99318.44;4311170;33;33356;-92
2023/12/07 02:13:15;;;;;;;;;;;;;;;2.85;80.34;99323.56;4311001;33;34021;-92
2023/12/07 02:15:44;;;;;;;;;;;;;;;3.04;79.25;99314.41;4311179;33;33067;-91
2023/12/07 02:18:15;;;;;;;;;;;;;;;3.02;78.85;99316.97;4316363;33;34283;-91
2023/12/07 02:20:47;;;;;;;;;;;;;;;2.95;79.09;99315.19;4310686;33;33491;-90
2023/12/07 02:23:16;;;;;;;;;;;;;;;2.87;79.78;99311.66;4309349;33;34029;-92
2023/12/07 02:26:05;;;;;;;;;;;;;;;2.88;79.41;99308.25;4322221;33;33259;-91
2023/12/07 02:28:35;;;;;;;;;;;;;;;3.07;78.78;99316.97;4321667;33;33882;-91
2023/12/07 02:31:04;;;;;;;;;;;;;;;2.84;79.76;99311.62;4316263;33;34727;-90
2023/12/07 02:33:33;;;;;;;;;;;;;;;2.78;79.83;99307.28;4305493;33;32198;-91
2023/12/07 02:36:01;;;;;;;;;;;;;;;2.63;80.30;99314.75;4309474;33;35029;-91
2023/12/07 02:38:30;;;;;;;;;;;;;;;2.83;79.82;99313.31;4311026;33;34515;-89
2023/12/07 02:40:58;;;;;;;;;;;;;;;2.73;79.73;99306.34;4311332;33;35244;-91
2023/12/07 02:43:27;;;;;;;;;;;;;;;2.47;80.94;99312.00;4315976;33;32346;-90
2023/12/07 02:45:57;;;;;;;;;;;;;;;2.50;81.24;99317.16;4320466;33;33388;-91
2023/12/07 02:48:26;;;;;;;;;;;;;;;2.50;81.49;99313.75;4308000;33;34201;-91
2023/12/07 02:50:54;;;;;;;;;;;;;;;2.72;80.75;99320.88;4310413;33;34536;-90
2023/12/07 02:53:23;;;;;;;;;;;;;;;2.69;80.28;99317.41;4327723;33;33176;-89
2023/12/07 02:55:51;;;;;;;;;;;;;;;2.69;80.16;99312.28;4314845;33;34485;-90
2023/12/07 02:58:20;;;;;;;;;;;;;;;2.54;81.08;99318.09;4324977;33;33596;-91
2023/12/07 03:00:48;;;;;;;;;;;;;;;2.70;80.50;99319.12;4312470;33;34319;-91
2023/12/07 03:03:18;;;;;;;;;;;;;;;2.49;81.69;99322.25;4315827;33;34035;-90
2023/12/07 03:05:47;;;;;;;;;;;;;;;2.64;80.59;99324.19;4323430;33;34659;-92
2023/12/07 03:08:15;;;;;;;;;;;;;;;2.47;81.79;99324.81;4322702;33;33574;-90
2023/12/07 03:10:44;;;;;;;;;;;;;;;2.63;80.85;99325.88;4308294;33;33762;-90
2023/12/07 03:13:12;;;;;;;;;;;;;;;2.49;81.43;99330.81;4306253;33;33377;-91
2023/12/07 03:15:41;;;;;;;;;;;;;;;2.36;82.35;99336.59;4307430;33;33778;-90
2023/12/07 03:18:10;;;;;;;;;;;;;;;2.34;82.17;99339.16;4303464;33;34288;-92
2023/12/07 03:20:39;;;;;;;;;;;;;;;2.49;81.97;99335.06;4300389;33;34366;-90
2023/12/07 03:23:08;;;;;;;;;;;;;;;2.71;80.85;99331.97;4298258;33;33623;-91
2023/12/07 03:25:36;;;;;;;;;;;;;;;2.49;82.24;99335.06;4309565;33;33500;-89
2023/12/07 03:28:05;;;;;;;;;;;;;;;2.68;81.19;99333.59;4296356;33;34431;-92
2023/12/07 03:30:34;;;;;;;;;;;;;;;2.83;80.16;99336.38;4305180;33;33935;-91
2023/12/07 03:33:03;;;;;;;;;;;;;;;2.76;80.21;99342.28;4298157;33;33437;-90
2023/12/07 03:35:31;;;;;;;;;;;;;;;2.85;79.72;99338.94;4307443;33;34279;-90
2023/12/07 03:38:02;;;;;;;;;;;;;;;2.62;80.75;99336.97;4300016;33;35268;-90
2023/12/07 03:40:30;;;;;;;;;;;;;;;2.55;80.90;99340.28;4297383;33;33466;-92
2023/12/07 03:42:58;;;;;;;;;;;;;;;2.46;81.40;99343.56;4301758;33;33994;-93
2023/12/07 03:45:28;;;;;;;;;;;;;;;2.54;80.93;99348.81;4300139;33;33734;-91
2023/12/07 03:47:57;;;;;;;;;;;;;;;2.56;80.86;99342.88;4315102;33;34021;-91
2023/12/07 03:50:25;;;;;;;;;;;;;;;2.69;80.51;99345.59;4304399;33;32544;-91
2023/12/07 03:52:54;;;;;;;;;;;;;;;2.51;81.35;99341.97;4310093;33;32699;-92
2023/12/07 03:55:25;;;;;;;;;;;;;;;2.50;81.31;99349.59;4309487;33;34102;-90
2023/12/07 03:57:53;;;;;;;;;;;;;;;2.47;81.86;99350.41;4302197;33;36657;-90
2023/12/07 04:00:23;;;;;;;;;;;;;;;2.59;81.56;99354.84;4306098;33;34090;-94
2023/12/07 04:02:52;;;;;;;;;;;;;;;2.84;80.47;99350.91;4308365;33;33662;-93
2023/12/07 04:05:21;;;;;;;;;;;;;;;3.02;79.38;99354.53;4306210;33;35067;-91
2023/12/07 04:07:50;;;;;;;;;;;;;;;3.00;78.81;99349.41;4304491;33;34156;-92
2023/12/07 04:10:19;;;;;;;;;;;;;;;2.90;79.35;99353.56;4305210;33;34481;-92
2023/12/07 04:12:49;;;;;;;;;;;;;;;2.85;80.08;99362.88;4307873;33;31341;-91
2023/12/07 04:15:20;;;;;;;;;;;;;;;3.01;78.88;99363.91;4306317;33;35065;-91
2023/12/07 04:17:49;;;;;;;;;;;;;;;2.90;80.01;99363.78;4303237;33;34101;-94
2023/12/07 04:20:18;;;;;;;;;;;;;;;2.97;80.21;99370.72;4309870;33;33720;-92
2023/12/07 04:22:47;;;;;;;;;;;;;;;3.17;78.85;99364.97;4312290;33;33379;-92
2023/12/07 04:25:15;;;;;;;;;;;;;;;3.33;77.91;99366.84;4297951;33;33062;-91
2023/12/07 04:27:44;;;;;;;;;;;;;;;3.33;77.46;99371.97;4297420;33;33366;-90
2023/12/07 04:30:15;;;;;;;;;;;;;;;3.19;77.88;99369.25;4311035;33;33842;-91
2023/12/07 04:32:44;;;;;;;;;;;;;;;2.90;79.07;99371.47;4317468;33;34646;-92
2023/12/07 04:35:13;;;;;;;;;;;;;;;3.04;78.84;99378.47;4311347;33;34451;-92
2023/12/07 04:37:41;;;;;;;;;;;;;;;2.96;79.02;99379.22;4311588;33;35309;-91
2023/12/07 04:40:11;;;;;;;;;;;;;;;3.17;78.13;99376.06;4311877;33;34282;-92
2023/12/07 04:42:40;;;;;;;;;;;;;;;3.04;78.47;99378.47;4315509;33;33729;-91
2023/12/07 04:45:09;;;;;;;;;;;;;;;2.98;79.14;99381.81;4297733;33;35075;-91
2023/12/07 04:47:39;;;;;;;;;;;;;;;3.04;78.95;99384.44;4311417;33;34067;-93
2023/12/07 04:50:09;;;;;;;;;;;;;;;3.10;78.36;99384.53;4312558;33;34639;-91
2023/12/07 04:52:37;;;;;;;;;;;;;;;3.20;77.87;99386.34;4316810;33;32656;-92
2023/12/07 04:55:07;;;;;;;;;;;;;;;3.02;78.67;99395.53;4324164;33;34760;-91
2023/12/07 04:57:36;;;;;;;;;;;;;;;3.17;78.15;99393.16;4326128;33;33762;-91
2023/12/07 05:00:09;;;;;;;;;;;;;;;3.29;77.49;99385.59;4310903;33;33954;-90
2023/12/07 05:02:39;;;;;;;;;;;;;;;3.39;76.70;99390.00;4311537;33;33937;-92
2023/12/07 05:05:08;;;;;;;;;;;;;;;3.23;77.37;99394.94;4316870;33;33854;-90
2023/12/07 05:07:37;;;;;;;;;;;;;;;3.07;77.84;99402.44;4310845;33;34666;-92
2023/12/07 05:10:06;;;;;;;;;;;;;;;3.09;77.95;99402.44;4311435;33;33565;-91
2023/12/07 05:12:35;;;;;;;;;;;;;;;2.89;79.04;99412.44;4311469;33;32590;-89
2023/12/07 05:15:04;;;;;;;;;;;;;;;2.96;78.65;99414.25;4316552;33;34435;-91
2023/12/07 05:17:33;;;;;;;;;;;;;;;3.03;78.60;99410.06;4311430;33;33823;-89
2023/12/07 05:20:04;;;;;;;;;;;;;;;2.87;79.29;99409.84;4319794;33;34144;-90
2023/12/07 05:22:33;;;;;;;;;;;;;;;2.97;78.70;99411.72;4324618;33;32817;-91
2023/12/07 05:25:01;;;;;;;;;;;;;;;2.83;79.24;99417.47;4307214;33;32983;-89
2023/12/07 05:27:30;;;;;;;;;;;;;;;2.91;79.18;99416.75;4315832;33;34082;-92
2023/12/07 05:29:59;;;;;;;;;;;;;;;2.73;79.86;99424.16;4306768;33;33775;-91
2023/12/07 05:32:27;;;;;;;;;;;;;;;2.70;80.07;99425.00;4320622;33;33188;-90
2023/12/07 05:34:56;;;;;;;;;;;;;;;2.86;79.63;99436.31;4311107;33;33663;-89
2023/12/07 05:37:26;;;;;;;;;;;;;;;2.76;80.12;99437.03;4315313;33;33392;-90
2023/12/07 05:39:54;;;;;;;;;;;;;;;2.99;79.08;99432.22;4311120;33;34480;-89
2023/12/07 05:42:23;;;;;;;;;;;;;;;2.98;79.22;99430.50;4310192;33;32910;-89
2023/12/07 05:44:52;;;;;;;;;;;;;;;3.01;79.08;99435.66;4308582;33;33678;-89
2023/12/07 05:47:23;;;;;;;;;;;;;;;3.01;78.67;99434.81;4316490;33;34038;-90
2023/12/07 05:49:52;;;;;;;;;;;;;;;2.81;79.79;99432.00;4311546;33;33423;-90
2023/12/07 05:52:20;;;;;;;;;;;;;;;2.88;79.30;99444.91;4310596;33;33162;-90
2023/12/07 05:54:50;;;;;;;;;;;;;;;2.69;79.95;99445.47;4310692;33;34355;-90
2023/12/07 05:57:19;;;;;;;;;;;;;;;2.49;81.40;99456.28;4311440;33;33776;-90
2023/12/07 05:59:47;;;;;;;;;;;;;;;2.65;80.90;99453.94;4316273;33;33812;-91
2023/12/07 06:02:16;;;;;;;;;;;;;;;2.97;79.43;99459.53;4309018;33;32895;-89
2023/12/07 06:04:44;;;;;;;;;;;;;;;3.02;78.76;99462.16;4310894;33;34170;-90
2023/12/07 06:07:13;;;;;;;;;;;;;;;2.64;80.27;99455.66;4310791;33;33592;-89
2023/12/07 06:09:41;;;;;;;;;;;;;;;2.64;80.40;99458.22;4316508;33;33872;-89
2023/12/07 06:12:12;;;;;;;;;;;;;;;2.58;80.68;99459.81;4322076;33;31954;-88
2023/12/07 06:14:40;;;;;;;;;;;;;;;2.54;81.06;99458.91;4310987;33;34347;-91
2023/12/07 06:17:09;;;;;;;;;;;;;;;2.47;81.56;99462.22;4310111;33;33339;-89
2023/12/07 06:19:37;;;;;;;;;;;;;;;2.54;81.43;99464.91;4311561;33;33488;-90
2023/12/07 06:22:06;;;;;;;;;;;;;;;2.50;81.46;99468.25;4303073;33;32031;-89
2023/12/07 06:24:35;;;;;;;;;;;;;;;2.59;81.29;99476.91;4310552;33;34072;-88
2023/12/07 06:27:07;;;;;;;;;;;;;;;2.44;81.86;99478.41;4310769;33;34725;-89
2023/12/07 06:29:37;;;;;;;;;;;;;;;2.44;81.81;99477.50;4310621;33;33895;-88
2023/12/07 06:32:06;;;;;;;;;;;;;;;2.35;82.39;99473.97;4327621;33;33266;-89
2023/12/07 06:34:34;;;;;;;;;;;;;;;2.39;82.25;99480.00;4325613;33;34507;-89
2023/12/07 06:37:06;;;;;;;;;;;;;;;2.53;81.94;99483.63;4306168;33;33628;-89
2023/12/07 06:39:35;;;;;;;;;;;;;;;2.66;81.36;99492.41;4307165;33;33460;-88
2023/12/07 06:42:04;;;;;;;;;;;;;;;2.45;81.99;99492.06;4295419;33;33358;-88
2023/12/07 06:44:33;;;;;;;;;;;;;;;2.43;82.02;99497.16;4302074;33;33648;-90
2023/12/07 06:47:04;;;;;;;;;;;;;;;2.34;82.90;99497.87;4295659;33;33729;-88
2023/12/07 06:49:33;;;;;;;;;;;;;;;2.49;82.61;99496.38;4304491;33;33632;-88
2023/12/07 06:52:17;;;;;;;;;;;;;;;2.50;82.31;99505.78;4308286;33;32736;-89
2023/12/07 06:54:46;;;;;;;;;;;;;;;2.60;81.97;99517.03;4299131;33;35268;-88
2023/12/07 06:57:17;;;;;;;;;;;;;;;2.70;80.93;99508.66;4290601;33;34477;-89
2023/12/07 06:59:47;;;;;;;;;;;;;;;2.61;81.16;99518.75;4301717;33;34494;-89
2023/12/07 07:02:18;;;;;;;;;;;;;;;2.64;81.45;99512.00;4296761;33;34332;-88
2023/12/07 07:04:50;;;;;;;;;;;;;;;2.68;80.93;99508.66;4298042;33;34293;-88
2023/12/07 07:07:22;;;;;;;;;;;;;;;2.35;82.84;99514.09;4299539;33;34478;-89
2023/12/07 07:10:00;;;;;;;;;;;;;;;2.54;81.74;99516.13;4300118;33;35165;-89
2023/12/07 07:12:34;;;;;;;;;;;;;;;2.66;81.48;99517.12;4297454;33;33236;-89
2023/12/07 07:15:11;;;;;;;;;;;;;;;2.57;81.23;99515.28;4301461;33;36481;-89
2023/12/07 07:17:42;;;;;;;;;;;;;;;2.50;81.76;99519.44;4287726;33;35273;-88
2023/12/07 07:20:14;;;;;;;;;;;;;;;2.62;81.30;99523.06;4301651;33;34942;-87
2023/12/07 07:22:42;;;;;;;;;;;;;;;2.51;81.58;99523.75;4318405;33;33577;-89
2023/12/07 07:25:15;;;;;;;;;;;;;;;2.28;82.96;99525.91;4339224;33;34541;-88
2023/12/07 07:27:44;;;;;;;;;;;;;;;2.28;83.33;99522.50;4322707;33;33128;-89
2023/12/07 07:30:13;;;;;;;;;;;;;;;2.38;82.18;99534.59;4322808;33;34381;-90
2023/12/07 07:32:45;;;;;;;;;;;;;;;2.47;82.10;99533.91;4321122;33;33258;-89
2023/12/07 07:35:14;;;;;;;;;;;;;;;2.54;82.10;99534.03;4320499;33;34192;-87
2023/12/07 07:37:44;;;;;;;;;;;;;;;2.37;82.49;99535.47;4316464;33;34598;-87
2023/12/07 07:40:14;;;;;;;;;;;;;;;2.46;82.96;99535.59;4305634;33;34536;-88
2023/12/07 07:42:43;;;;;;;;;;;;;;;2.82;80.89;99531.91;4326562;33;32829;-88
2023/12/07 07:45:12;;;;;;;;;;;;;;;2.50;81.63;99541.63;4313752;33;34198;-86
2023/12/07 07:47:41;;;;;;;;;;;;;;;2.59;81.68;99544.34;4309861;33;34383;-88
2023/12/07 07:50:12;;;;;;;;;;;;;;;2.69;80.96;99543.66;4314154;33;34158;-86
2023/12/07 07:52:41;;;;;;;;;;;;;;;2.54;81.31;99551.09;4315228;33;33684;-87
2023/12/07 07:55:11;;;;;;;;;;;;;;;2.38;82.13;99549.97;4321190;33;34860;-89
2023/12/07 07:57:39;;;;;;;;;;;;;;;2.43;82.08;99557.72;4305366;33;35584;-88
2023/12/07 08:00:09;;;;;;;;;;;;;;;2.50;82.10;99557.84;4314377;33;33362;-86
2023/12/07 08:02:38;;;;;;;;;;;;;;;2.53;81.83;99560.47;4321099;33;33740;-89
2023/12/07 08:05:07;;;;;;;;;;;;;;;2.29;82.64;99555.78;4316588;33;34054;-88
2023/12/07 08:07:37;;;;;;;;;;;;;;;2.43;82.23;99557.72;4312962;33;35033;-88
2023/12/07 08:10:07;;;;;;;;;;;;;;;2.58;81.53;99554.56;4316266;33;34160;-86
2023/12/07 08:12:36;;;;;;;;;;;;;;;2.84;80.63;99566.09;4320432;33;32609;-87
2023/12/07 08:15:07;;;;;;;;;;;;;;;2.76;80.63;99555.72;4324512;33;33704;-86
2023/12/07 08:17:38;;;;;;;;;;;;;;;2.55;81.50;99563.91;4315212;33;34721;-86
2023/12/07 08:20:08;;;;;;;;;;;;;;;2.78;80.25;99559.19;4318231;33;33088;-86
2023/12/07 08:22:39;;;;;;;;;;;;;;;2.52;81.38;99563.03;4316930;33;32822;-88
2023/12/07 08:25:09;;;;;;;;;;;;;;;2.59;81.59;99564.00;4312510;33;33613;-88
2023/12/07 08:27:40;;;;;;;;;;;;;;;2.40;82.85;99565.38;4310233;33;35310;-86
2023/12/07 08:30:09;;;;;;;;;;;;;;;2.43;81.61;99561.16;4316825;33;33814;-87
2023/12/07 08:32:38;;;;;;;;;;;;;;;2.58;81.46;99562.25;4319517;33;34610;-87
2023/12/07 08:35:08;;;;;;;;;;;;;;;2.43;82.30;99563.72;4304472;33;35931;-87
2023/12/07 08:37:39;;;;;;;;;;;;;;;2.60;82.00;99570.81;4320690;33;36107;-88
2023/12/07 08:40:11;;;;;;;;;;;;;;;2.64;81.65;99570.91;4303966;33;34546;-86
2023/12/07 08:42:40;;;;;;;;;;;;;;;2.56;81.77;99564.78;4305511;33;33671;-88
2023/12/07 08:45:09;;;;;;;;;;;;;;;2.71;81.35;99572.72;4317555;33;34345;-88
2023/12/07 08:47:38;;;;;;;;;;;;;;;2.50;82.11;99567.25;4312261;33;35456;-88
2023/12/07 08:50:09;;;;;;;;;;;;;;;2.83;81.10;99571.19;4326632;33;34840;-88
2023/12/07 08:52:40;;;;;;;;;;;;;;;2.76;81.29;99567.69;4318501;33;32652;-88
2023/12/07 08:55:18;;;;;;;;;;;;;;;3.02;80.08;99567.22;4312931;33;35165;-88
2023/12/07 08:57:48;;;;;;;;;;;;;;;3.02;79.73;99569.78;4317759;33;34442;-88
2023/12/07 09:32:24;;;;;;;;;;;;;;;2.98;80.28;99568.88;4435302;31;1285601;-91
2023/12/07 09:35:06;;;;;;;;;;;;;;;2.82;80.35;99565.22;4518313;31;32851;-92
2023/12/07 09:37:48;;;;;;;;;;;;;;;2.48;82.20;99569.75;4491018;31;33992;-93
2023/12/07 09:40:31;;;;;;;;;;;;;;;2.70;81.89;99567.56;4492320;31;34624;-92
2023/12/07 10:31:23;;;;;;;;;;;;;;;2.69;80.86;99569.28;4330797;33;33612;-93
2023/12/07 10:34:13;;;;;;;;;;;;;;;2.69;81.44;99563.31;4318095;33;35171;-94
2023/12/07 10:36:52;;;;;;;;;;;;;;;2.89;80.69;99564.47;4322232;33;35195;-94
2023/12/07 10:40:32;;;;;;;;;;;;;;;2.93;80.39;99575.66;4327858;33;35114;-95
2023/12/07 10:43:25;;;;;;;;;;;;;;;2.87;80.56;99565.28;4322753;33;33416;-94
2023/12/07 10:45:59;;;;;;;;;;;;;;;2.81;80.51;99568.63;4311051;33;34577;-94
2023/12/07 10:48:51;;;;;;;;;;;;;;;2.84;80.41;99567.81;4308598;33;34675;-95
2023/12/07 10:51:44;;;;;;;;;;;;;;;3.10;79.55;99575.91;4308367;33;35085;-94
2023/12/07 10:54:36;;;;;;;;;;;;;;;3.03;80.06;99568.97;4323224;32;33267;-94
2023/12/07 10:57:46;;;;;;;;;;;;;;;2.80;80.48;99571.16;4365907;32;34173;-95
2023/12/07 11:00:34;;;;;;;;;;;;;;;2.96;79.52;99576.53;4406447;32;33777;-94
2023/12/07 11:03:25;;;;;;;;;;;;;;;2.86;80.78;99581.50;4393550;32;34304;-92
2023/12/07 11:05:56;;;;;;;;;;;;;;;2.82;80.34;99580.59;4389487;32;31859;-94
2023/12/07 11:08:27;;;;;;;;;;;;;;;2.90;80.96;99584.16;4431136;32;33116;-92
2023/12/07 11:11:00;;;;;;;;;;;;;;;3.07;79.73;99578.41;4448127;32;32910;-91
2023/12/07 11:13:29;;;;;;;;;;;;;;;2.90;79.96;99575.56;4451528;32;33219;-90
2023/12/07 11:15:58;;;;;;;;;;;;;;;2.85;80.62;99583.22;4446512;32;33001;-90
2023/12/07 11:18:26;;;;;;;;;;;;;;;2.93;80.45;99581.63;4458125;32;33345;-90
2023/12/07 11:20:57;;;;;;;;;;;;;;;2.91;80.32;99579.88;4451966;32;33678;-89
2023/12/07 11:23:26;;;;;;;;;;;;;;;2.96;80.34;99588.50;4458882;32;33899;-89
2023/12/07 11:25:55;;;;;;;;;;;;;;;3.01;79.75;99579.16;4452335;32;32935;-91
2023/12/07 11:28:35;;;;;;;;;;;;;;;3.01;80.27;99588.56;4450406;32;34082;-89
2023/12/07 11:31:03;;;;;;;;;;;;;;;3.15;79.64;99585.38;4452328;32;34822;-90
2023/12/07 11:33:32;;;;;;;;;;;;;;;3.20;79.00;99580.31;4477338;32;33564;-91
2023/12/07 11:36:06;;;;;;;;;;;;;;;2.92;80.49;99577.34;4477713;32;33222;-91
2023/12/07 11:38:34;;;;;;;;;;;;;;;3.22;80.14;99578.66;4481152;31;34701;-92
2023/12/07 11:41:03;;;;;;;;;;;;;;;3.22;79.44;99578.66;4492861;31;34954;-93
2023/12/07 11:43:37;;;;;;;;;;;;;;;3.21;79.17;99579.47;4486828;31;34738;-90
2023/12/07 11:46:07;;;;;;;;;;;;;;;3.40;78.40;99578.03;4480065;31;33034;-93
2023/12/07 11:48:35;;;;;;;;;;;;;;;3.18;79.32;99582.00;4476741;31;34484;-90
2023/12/07 11:51:07;;;;;;;;;;;;;;;3.16;79.79;99578.53;4477559;32;33670;-91
2023/12/07 11:53:36;;;;;;;;;;;;;;;3.46;78.71;99587.53;4484836;31;34535;-90
2023/12/07 11:56:05;;;;;;;;;;;;;;;3.48;78.96;99578.12;4464328;31;32260;-91
2023/12/07 11:58:34;;;;;;;;;;;;;;;3.50;79.08;99584.16;4477226;32;33789;-91
2023/12/07 12:01:08;;;;;;;;;;;;;;;3.42;78.72;99574.66;4481738;31;34205;-91
2023/12/07 12:03:38;;;;;;;;;;;;;;;3.56;78.35;99585.09;4465196;31;32161;-92
2023/12/07 12:06:10;;;;;;;;;;;;;;;3.51;77.96;99581.63;4485075;31;32591;-93
2023/12/07 12:08:41;;;;;;;;;;;;;;;3.61;77.95;99587.72;4482340;31;33151;-92
2023/12/07 12:11:09;;;;;;;;;;;;;;;3.38;78.21;99585.72;4477817;31;33731;-93
2023/12/07 12:13:40;;;;;;;;;;;;;;;3.30;78.84;99586.44;4477875;31;33861;-94
2023/12/07 12:16:09;;;;;;;;;;;;;;;3.56;78.12;99586.81;4468461;31;31822;-92
2023/12/07 12:18:37;;;;;;;;;;;;;;;3.40;77.66;99593.41;4474387;31;33292;-93
2023/12/07 12:21:09;;;;;;;;;;;;;;;3.15;79.31;99589.66;4474204;31;34391;-93
2023/12/07 12:23:39;;;;;;;;;;;;;;;3.12;79.24;99585.34;4463182;32;33239;-92
2023/12/07 12:26:09;;;;;;;;;;;;;;;3.46;78.29;99593.50;4463278;31;33048;-93
2023/12/07 12:28:42;;;;;;;;;;;;;;;3.38;78.16;99595.97;4483301;31;34174;-92
2023/12/07 12:31:13;;;;;;;;;;;;;;;3.33;78.08;99597.59;4477836;31;34836;-93
2023/12/07 12:33:41;;;;;;;;;;;;;;;3.22;79.10;99595.72;4471933;31;33907;-91
2023/12/07 12:36:12;;;;;;;;;;;;;;;3.45;78.26;99598.63;4484073;31;31171;-91
2023/12/07 12:38:41;;;;;;;;;;;;;;;3.29;78.53;99603.53;4486487;31;33695;-92
2023/12/07 12:41:12;;;;;;;;;;;;;;;3.27;79.27;99600.09;4478309;31;33701;-91
2023/12/07 12:43:42;;;;;;;;;;;;;;;3.51;78.16;99604.69;4480727;31;33980;-93
2023/12/07 12:46:11;;;;;;;;;;;;;;;3.50;77.75;99610.66;4477589;31;32992;-94
2023/12/07 12:48:53;;;;;;;;;;;;;;;3.27;78.93;99606.91;4482534;31;34128;-91
2023/12/07 12:51:24;;;;;;;;;;;;;;;3.34;78.64;99609.59;4484140;31;35057;-93
2023/12/07 12:53:52;;;;;;;;;;;;;;;3.49;77.91;99610.66;4465507;32;32149;-89
2023/12/07 12:56:21;;;;;;;;;;;;;;;3.28;78.41;99614.59;4476528;31;33867;-90
2023/12/07 12:58:50;;;;;;;;;;;;;;;3.17;78.77;99614.47;4478451;31;33870;-90
2023/12/07 13:01:18;;;;;;;;;;;;;;;3.16;78.79;99615.28;4484352;31;34691;-91
2023/12/07 13:03:47;;;;;;;;;;;;;;;3.38;78.22;99618.16;4480027;31;33380;-89
2023/12/07 13:06:16;;;;;;;;;;;;;;;3.50;77.35;99620.06;4476523;31;33759;-88
2023/12/07 13:08:46;;;;;;;;;;;;;;;3.36;77.66;99622.44;4477170;31;34272;-88
2023/12/07 13:11:15;;;;;;;;;;;;;;;3.16;78.81;99627.25;4477601;31;34025;-88
2023/12/07 13:13:44;;;;;;;;;;;;;;;3.22;78.63;99629.91;4485992;31;33880;-89
2023/12/07 13:16:14;;;;;;;;;;;;;;;3.07;79.09;99630.53;4477736;31;32720;-88
2023/12/07 13:18:43;;;;;;;;;;;;;;;3.24;78.39;99630.81;4477534;31;33714;-88
2023/12/07 13:21:11;;;;;;;;;;;;;;;3.06;79.07;99633.06;4478141;31;33134;-87
2023/12/07 13:23:40;;;;;;;;;;;;;;;2.70;80.74;99623.91;4486345;31;33248;-91
2023/12/07 13:26:10;;;;;;;;;;;;;;;2.85;80.42;99631.91;4478893;31;32815;-88
2023/12/07 13:28:38;;;;;;;;;;;;;;;2.89;80.16;99625.97;4478894;31;33581;-88
2023/12/07 13:31:10;;;;;;;;;;;;;;;2.78;80.37;99625.78;4484014;31;34130;-91
2023/12/07 13:33:40;;;;;;;;;;;;;;;3.23;79.34;99630.78;4475838;31;34151;-90
2023/12/07 13:36:22;;;;;;;;;;;;;;;3.09;79.61;99633.97;4480556;31;34045;-88
2023/12/07 13:38:51;;;;;;;;;;;;;;;3.23;79.08;99634.19;4474798;31;34283;-87
2023/12/07 13:41:21;;;;;;;;;;;;;;;3.17;79.45;99629.84;4476583;31;34885;-88
2023/12/07 13:43:50;;;;;;;;;;;;;;;3.30;78.34;99637.72;4474744;31;33344;-88
2023/12/07 13:46:19;;;;;;;;;;;;;;;3.28;78.71;99640.25;4489864;31;33578;-89
2023/12/07 13:48:49;;;;;;;;;;;;;;;3.26;78.87;99641.06;4489459;31;33631;-90
2023/12/07 13:51:20;;;;;;;;;;;;;;;3.26;78.62;99639.34;4481054;31;33798;-88
2023/12/07 13:53:48;;;;;;;;;;;;;;;3.11;79.98;99647.66;4482683;31;34511;-87
2023/12/07 13:56:17;;;;;;;;;;;;;;;3.38;78.59;99639.56;4475321;31;32915;-87
2023/12/07 13:58:47;;;;;;;;;;;;;;;3.47;77.96;99648.22;4482415;31;34447;-89
2023/12/07 14:01:16;;;;;;;;;;;;;;;3.41;77.86;99649.00;4477567;31;33694;-87
2023/12/07 14:03:45;;;;;;;;;;;;;;;3.42;78.10;99651.56;4475960;31;33165;-90
2023/12/07 14:06:20;;;;;;;;;;;;;;;3.56;77.23;99656.06;4479483;31;33064;-90
2023/12/07 14:08:56;;;;;;;;;;;;;;;3.55;77.67;99654.31;4487629;31;34422;-87
2023/12/07 14:11:24;;;;;;;;;;;;;;;3.36;78.54;99664.31;4480439;31;33919;-86
2023/12/07 14:13:54;;;;;;;;;;;;;;;3.56;77.52;99662.06;4471904;31;34277;-89
2023/12/07 14:16:25;;;;;;;;;;;;;;;3.45;77.91;99668.72;4465981;31;32743;-89
2023/12/07 14:19:15;;;;;;;;;;;;;;;3.29;78.45;99667.63;4482265;31;33779;-87
2023/12/07 14:21:45;;;;;;;;;;;;;;;3.50;77.79;99673.91;4490217;31;34860;-87
2023/12/07 14:24:23;;;;;;;;;;;;;;;3.11;79.03;99675.88;4484689;31;33726;-88
2023/12/07 14:26:53;;;;;;;;;;;;;;;3.34;78.62;99680.53;4480160;31;34526;-88
2023/12/07 14:29:24;;;;;;;;;;;;;;;3.35;78.57;99689.94;4483389;31;34656;-89
2023/12/07 14:31:58;;;;;;;;;;;;;;;3.25;78.63;99695.75;4480772;31;33291;-87
2023/12/07 14:34:28;;;;;;;;;;;;;;;3.34;78.23;99693.34;4484788;31;35065;-89
2023/12/07 14:37:05;;;;;;;;;;;;;;;3.29;78.62;99695.84;4480554;31;33493;-87
2023/12/07 14:39:35;;;;;;;;;;;;;;;3.33;78.16;99699.28;4464052;31;31452;-89
2023/12/07 14:42:05;;;;;;;;;;;;;;;3.18;78.61;99702.47;4480122;31;34650;-90
2023/12/07 14:44:35;;;;;;;;;;;;;;;3.37;78.33;99707.06;4479099;31;34229;-87
2023/12/07 14:47:04;;;;;;;;;;;;;;;3.29;78.55;99702.66;4488239;31;31781;-88
2023/12/07 14:49:32;;;;;;;;;;;;;;;3.39;77.96;99714.78;4484036;31;34838;-88